sensor_id;sensor_type;location;lat;lon;timestamp;P1;durP1;ratioP1;P2;durP2;ratioP2
34497;SDS011;20744;50.938;7.286;2023-04-15T00:00:18;7.78;;;3.15;;
34497;SDS011;20744;50.938;7.286;2023-04-15T00:02:46;8.00;;;3.03;;
34497;SDS011;20744;50.938;7.286;2023-04-15T00:05:13;8.02;;;3.08;;
34497;SDS011;20744;50.938;7.286;2023-04-15T00:07:42;8.00;;;3.10;;
34497;SDS011;20744;50.938;7.286;2023-04-15T00:10:11;8.95;;;3.15;;
34497;SDS011;20744;50.938;7.286;2023-04-15T00:12:38;8.68;;;3.17;;
34497;SDS011;20744;50.938;7.286;2023-04-15T00:15:07;5.78;;;2.83;;
34497;SDS011;20744;50.938;7.286;2023-04-15T00:17:34;6.47;;;3.00;;
34497;SDS011;20744;50.938;7.286;2023-04-15T00:20:04;9.68;;;3.53;;
34497;SDS011;20744;50.938;7.286;2023-04-15T00:22:32;5.90;;;2.90;;
34497;SDS011;20744;50.938;7.286;2023-04-15T00:25:00;5.30;;;2.55;;
34497;SDS011;20744;50.938;7.286;2023-04-15T00:27:28;7.57;;;2.88;;
34497;SDS011;20744;50.938;7.286;2023-04-15T00:29:55;10.32;;;3.30;;
34497;SDS011;20744;50.938;7.286;2023-04-15T00:32:24;6.93;;;3.08;;
34497;SDS011;20744;50.938;7.286;2023-04-15T00:34:51;8.77;;;3.15;;
34497;SDS011;20744;50.938;7.286;2023-04-15T00:37:18;7.35;;;2.83;;
34497;SDS011;20744;50.938;7.286;2023-04-15T00:39:45;7.55;;;2.97;;
34497;SDS011;20744;50.938;7.286;2023-04-15T00:42:14;11.32;;;3.05;;
34497;SDS011;20744;50.938;7.286;2023-04-15T00:44:42;7.57;;;2.70;;
34497;SDS011;20744;50.938;7.286;2023-04-15T00:47:09;8.00;;;2.95;;
34497;SDS011;20744;50.938;7.286;2023-04-15T00:49:37;8.63;;;2.80;;
34497;SDS011;20744;50.938;7.286;2023-04-15T00:52:04;9.50;;;3.22;;
34497;SDS011;20744;50.938;7.286;2023-04-15T00:54:31;7.20;;;3.35;;
34497;SDS011;20744;50.938;7.286;2023-04-15T00:56:59;14.77;;;3.65;;
34497;SDS011;20744;50.938;7.286;2023-04-15T00:59:29;8.88;;;3.00;;
34497;SDS011;20744;50.938;7.286;2023-04-15T01:01:56;7.78;;;2.95;;
34497;SDS011;20744;50.938;7.286;2023-04-15T01:04:24;6.60;;;2.75;;
34497;SDS011;20744;50.938;7.286;2023-04-15T01:06:51;8.90;;;2.60;;
34497;SDS011;20744;50.938;7.286;2023-04-15T01:09:19;5.30;;;2.45;;
34497;SDS011;20744;50.938;7.286;2023-04-15T01:11:46;5.88;;;3.08;;
34497;SDS011;20744;50.938;7.286;2023-04-15T01:14:13;8.60;;;3.40;;
34497;SDS011;20744;50.938;7.286;2023-04-15T01:16:42;5.57;;;2.80;;
34497;SDS011;20744;50.938;7.286;2023-04-15T01:19:10;8.13;;;3.10;;
34497;SDS011;20744;50.938;7.286;2023-04-15T01:21:37;7.93;;;3.08;;
34497;SDS011;20744;50.938;7.286;2023-04-15T01:24:07;7.88;;;2.83;;
34497;SDS011;20744;50.938;7.286;2023-04-15T01:26:36;8.23;;;3.30;;
34497;SDS011;20744;50.938;7.286;2023-04-15T01:29:04;9.65;;;3.55;;
34497;SDS011;20744;50.938;7.286;2023-04-15T01:31:32;6.53;;;3.00;;
34497;SDS011;20744;50.938;7.286;2023-04-15T01:34:02;7.95;;;3.22;;
34497;SDS011;20744;50.938;7.286;2023-04-15T01:36:30;10.13;;;3.88;;
34497;SDS011;20744;50.938;7.286;2023-04-15T01:38:57;9.63;;;3.70;;
34497;SDS011;20744;50.938;7.286;2023-04-15T01:41:24;8.10;;;3.53;;
34497;SDS011;20744;50.938;7.286;2023-04-15T01:43:57;5.25;;;2.50;;
34497;SDS011;20744;50.938;7.286;2023-04-15T01:46:25;9.15;;;3.50;;
34497;SDS011;20744;50.938;7.286;2023-04-15T01:48:52;8.98;;;3.10;;
34497;SDS011;20744;50.938;7.286;2023-04-15T01:51:20;6.18;;;2.85;;
34497;SDS011;20744;50.938;7.286;2023-04-15T01:53:47;10.25;;;3.80;;
34497;SDS011;20744;50.938;7.286;2023-04-15T01:56:16;9.25;;;2.97;;
34497;SDS011;20744;50.938;7.286;2023-04-15T01:58:43;6.70;;;3.33;;
34497;SDS011;20744;50.938;7.286;2023-04-15T02:01:12;8.85;;;3.80;;
34497;SDS011;20744;50.938;7.286;2023-04-15T02:03:40;13.10;;;4.13;;
34497;SDS011;20744;50.938;7.286;2023-04-15T02:06:08;8.60;;;3.88;;
34497;SDS011;20744;50.938;7.286;2023-04-15T02:08:35;7.15;;;3.50;;
34497;SDS011;20744;50.938;7.286;2023-04-15T02:11:03;8.95;;;3.88;;
34497;SDS011;20744;50.938;7.286;2023-04-15T02:13:30;10.75;;;4.07;;
34497;SDS011;20744;50.938;7.286;2023-04-15T02:16:00;7.72;;;3.65;;
34497;SDS011;20744;50.938;7.286;2023-04-15T02:18:29;8.90;;;3.72;;
34497;SDS011;20744;50.938;7.286;2023-04-15T02:20:56;11.48;;;3.72;;
34497;SDS011;20744;50.938;7.286;2023-04-15T02:23:23;9.18;;;3.47;;
34497;SDS011;20744;50.938;7.286;2023-04-15T02:25:53;8.52;;;4.03;;
34497;SDS011;20744;50.938;7.286;2023-04-15T02:28:21;6.25;;;3.53;;
34497;SDS011;20744;50.938;7.286;2023-04-15T02:30:48;10.27;;;3.88;;
34497;SDS011;20744;50.938;7.286;2023-04-15T02:33:17;13.57;;;4.25;;
34497;SDS011;20744;50.938;7.286;2023-04-15T02:35:46;11.98;;;4.10;;
34497;SDS011;20744;50.938;7.286;2023-04-15T02:38:13;12.38;;;4.18;;
34497;SDS011;20744;50.938;7.286;2023-04-15T02:40:42;8.77;;;3.92;;
34497;SDS011;20744;50.938;7.286;2023-04-15T02:43:09;6.65;;;3.90;;
34497;SDS011;20744;50.938;7.286;2023-04-15T02:45:36;9.65;;;3.83;;
34497;SDS011;20744;50.938;7.286;2023-04-15T02:48:03;7.50;;;3.67;;
34497;SDS011;20744;50.938;7.286;2023-04-15T02:50:31;12.27;;;3.90;;
34497;SDS011;20744;50.938;7.286;2023-04-15T02:53:00;10.50;;;4.03;;
34497;SDS011;20744;50.938;7.286;2023-04-15T02:55:27;10.32;;;3.83;;
34497;SDS011;20744;50.938;7.286;2023-04-15T02:57:54;8.27;;;3.95;;
34497;SDS011;20744;50.938;7.286;2023-04-15T03:00:25;6.50;;;3.65;;
34497;SDS011;20744;50.938;7.286;2023-04-15T03:02:56;7.68;;;3.40;;
34497;SDS011;20744;50.938;7.286;2023-04-15T03:05:24;6.97;;;3.88;;
34497;SDS011;20744;50.938;7.286;2023-04-15T03:07:51;10.27;;;3.70;;
34497;SDS011;20744;50.938;7.286;2023-04-15T03:10:20;8.85;;;3.60;;
34497;SDS011;20744;50.938;7.286;2023-04-15T03:12:47;9.40;;;4.18;;
34497;SDS011;20744;50.938;7.286;2023-04-15T03:15:15;11.93;;;3.80;;
34497;SDS011;20744;50.938;7.286;2023-04-15T03:17:43;7.82;;;3.97;;
34497;SDS011;20744;50.938;7.286;2023-04-15T03:20:10;8.60;;;3.58;;
34497;SDS011;20744;50.938;7.286;2023-04-15T03:22:37;9.73;;;4.30;;
34497;SDS011;20744;50.938;7.286;2023-04-15T03:25:07;13.05;;;4.25;;
34497;SDS011;20744;50.938;7.286;2023-04-15T03:27:36;5.70;;;3.65;;
34497;SDS011;20744;50.938;7.286;2023-04-15T03:30:04;9.40;;;4.07;;
34497;SDS011;20744;50.938;7.286;2023-04-15T03:32:32;9.55;;;3.80;;
34497;SDS011;20744;50.938;7.286;2023-04-15T03:34:59;11.23;;;3.97;;
34497;SDS011;20744;50.938;7.286;2023-04-15T03:37:26;12.18;;;4.38;;
34497;SDS011;20744;50.938;7.286;2023-04-15T03:39:54;9.82;;;4.70;;
34497;SDS011;20744;50.938;7.286;2023-04-15T03:42:24;14.30;;;4.68;;
34497;SDS011;20744;50.938;7.286;2023-04-15T03:44:53;11.48;;;4.45;;
34497;SDS011;20744;50.938;7.286;2023-04-15T03:47:20;10.32;;;4.50;;
34497;SDS011;20744;50.938;7.286;2023-04-15T03:49:47;9.38;;;4.65;;
34497;SDS011;20744;50.938;7.286;2023-04-15T03:52:15;12.80;;;4.70;;
34497;SDS011;20744;50.938;7.286;2023-04-15T03:54:42;14.82;;;4.95;;
34497;SDS011;20744;50.938;7.286;2023-04-15T03:57:10;9.02;;;4.68;;
34497;SDS011;20744;50.938;7.286;2023-04-15T03:59:39;9.88;;;4.53;;
34497;SDS011;20744;50.938;7.286;2023-04-15T04:02:07;8.65;;;4.07;;
34497;SDS011;20744;50.938;7.286;2023-04-15T04:04:35;8.18;;;3.33;;
34497;SDS011;20744;50.938;7.286;2023-04-15T04:07:02;11.13;;;3.60;;
34497;SDS011;20744;50.938;7.286;2023-04-15T04:09:29;6.57;;;3.50;;
34497;SDS011;20744;50.938;7.286;2023-04-15T04:11:57;8.18;;;3.72;;
34497;SDS011;20744;50.938;7.286;2023-04-15T04:14:24;11.15;;;4.43;;
34497;SDS011;20744;50.938;7.286;2023-04-15T04:16:53;9.20;;;5.00;;
34497;SDS011;20744;50.938;7.286;2023-04-15T04:19:22;9.68;;;5.05;;
34497;SDS011;20744;50.938;7.286;2023-04-15T04:21:50;11.25;;;4.38;;
34497;SDS011;20744;50.938;7.286;2023-04-15T04:24:17;8.82;;;4.55;;
34497;SDS011;20744;50.938;7.286;2023-04-15T04:26:45;15.63;;;5.22;;
34497;SDS011;20744;50.938;7.286;2023-04-15T04:29:12;8.63;;;4.30;;
34497;SDS011;20744;50.938;7.286;2023-04-15T04:31:39;10.25;;;4.80;;
34497;SDS011;20744;50.938;7.286;2023-04-15T04:34:07;8.05;;;4.30;;
34497;SDS011;20744;50.938;7.286;2023-04-15T04:36:37;10.60;;;4.90;;
34497;SDS011;20744;50.938;7.286;2023-04-15T04:39:05;12.05;;;4.85;;
34497;SDS011;20744;50.938;7.286;2023-04-15T04:41:34;8.52;;;3.80;;
34497;SDS011;20744;50.938;7.286;2023-04-15T04:44:01;9.25;;;3.55;;
34497;SDS011;20744;50.938;7.286;2023-04-15T04:46:28;7.60;;;3.75;;
34497;SDS011;20744;50.938;7.286;2023-04-15T04:48:55;14.55;;;4.70;;
34497;SDS011;20744;50.938;7.286;2023-04-15T04:51:23;8.30;;;4.57;;
34497;SDS011;20744;50.938;7.286;2023-04-15T04:53:51;11.13;;;5.28;;
34497;SDS011;20744;50.938;7.286;2023-04-15T04:56:19;13.88;;;6.43;;
34497;SDS011;20744;50.938;7.286;2023-04-15T04:58:48;11.65;;;7.00;;
34497;SDS011;20744;50.938;7.286;2023-04-15T05:01:16;8.30;;;4.60;;
34497;SDS011;20744;50.938;7.286;2023-04-15T05:03:43;7.88;;;3.92;;
34497;SDS011;20744;50.938;7.286;2023-04-15T05:06:10;10.38;;;4.45;;
34497;SDS011;20744;50.938;7.286;2023-04-15T05:08:37;11.48;;;5.53;;
34497;SDS011;20744;50.938;7.286;2023-04-15T05:11:07;13.15;;;7.60;;
34497;SDS011;20744;50.938;7.286;2023-04-15T05:13:34;11.32;;;6.85;;
34497;SDS011;20744;50.938;7.286;2023-04-15T05:16:03;11.82;;;6.25;;
34497;SDS011;20744;50.938;7.286;2023-04-15T05:18:37;14.75;;;5.57;;
34497;SDS011;20744;50.938;7.286;2023-04-15T05:21:04;10.13;;;5.53;;
34497;SDS011;20744;50.938;7.286;2023-04-15T05:23:32;11.88;;;5.82;;
34497;SDS011;20744;50.938;7.286;2023-04-15T05:25:59;10.27;;;5.28;;
34497;SDS011;20744;50.938;7.286;2023-04-15T05:28:28;13.18;;;5.75;;
34497;SDS011;20744;50.938;7.286;2023-04-15T05:30:55;13.80;;;6.03;;
34497;SDS011;20744;50.938;7.286;2023-04-15T05:33:22;10.48;;;5.38;;
34497;SDS011;20744;50.938;7.286;2023-04-15T05:35:50;8.77;;;5.72;;
34497;SDS011;20744;50.938;7.286;2023-04-15T05:38:17;14.32;;;6.35;;
34497;SDS011;20744;50.938;7.286;2023-04-15T05:40:44;14.52;;;5.70;;
34497;SDS011;20744;50.938;7.286;2023-04-15T05:43:12;12.25;;;5.82;;
34497;SDS011;20744;50.938;7.286;2023-04-15T05:45:40;13.05;;;6.50;;
34497;SDS011;20744;50.938;7.286;2023-04-15T05:48:07;8.90;;;5.78;;
34497;SDS011;20744;50.938;7.286;2023-04-15T05:50:35;12.93;;;5.80;;
34497;SDS011;20744;50.938;7.286;2023-04-15T05:53:03;9.75;;;5.88;;
34497;SDS011;20744;50.938;7.286;2023-04-15T05:55:31;11.48;;;6.25;;
34497;SDS011;20744;50.938;7.286;2023-04-15T05:57:58;10.88;;;6.50;;
34497;SDS011;20744;50.938;7.286;2023-04-15T06:00:25;11.07;;;5.57;;
34497;SDS011;20744;50.938;7.286;2023-04-15T06:02:54;10.45;;;6.18;;
34497;SDS011;20744;50.938;7.286;2023-04-15T06:05:22;9.68;;;5.45;;
34497;SDS011;20744;50.938;7.286;2023-04-15T06:07:49;9.90;;;5.28;;
34497;SDS011;20744;50.938;7.286;2023-04-15T06:10:16;11.60;;;5.68;;
34497;SDS011;20744;50.938;7.286;2023-04-15T06:12:44;12.60;;;5.90;;
34497;SDS011;20744;50.938;7.286;2023-04-15T06:15:11;10.65;;;5.50;;
34497;SDS011;20744;50.938;7.286;2023-04-15T06:17:38;9.02;;;5.57;;
34497;SDS011;20744;50.938;7.286;2023-04-15T06:20:12;11.85;;;5.40;;
34497;SDS011;20744;50.938;7.286;2023-04-15T06:22:40;11.05;;;5.43;;
34497;SDS011;20744;50.938;7.286;2023-04-15T06:25:07;14.02;;;5.85;;
34497;SDS011;20744;50.938;7.286;2023-04-15T06:27:35;11.38;;;5.95;;
34497;SDS011;20744;50.938;7.286;2023-04-15T06:30:02;12.38;;;5.57;;
34497;SDS011;20744;50.938;7.286;2023-04-15T06:32:29;9.18;;;5.63;;
34497;SDS011;20744;50.938;7.286;2023-04-15T06:34:57;10.13;;;5.65;;
34497;SDS011;20744;50.938;7.286;2023-04-15T06:37:25;15.90;;;5.20;;
34497;SDS011;20744;50.938;7.286;2023-04-15T06:39:52;10.07;;;5.60;;
34497;SDS011;20744;50.938;7.286;2023-04-15T06:42:20;9.52;;;5.07;;
34497;SDS011;20744;50.938;7.286;2023-04-15T06:44:47;10.07;;;5.60;;
34497;SDS011;20744;50.938;7.286;2023-04-15T06:47:15;8.10;;;5.20;;
34497;SDS011;20744;50.938;7.286;2023-04-15T06:49:42;7.30;;;4.82;;
34497;SDS011;20744;50.938;7.286;2023-04-15T06:52:09;7.88;;;4.90;;
34497;SDS011;20744;50.938;7.286;2023-04-15T06:54:38;9.93;;;4.90;;
34497;SDS011;20744;50.938;7.286;2023-04-15T06:57:05;8.55;;;4.93;;
34497;SDS011;20744;50.938;7.286;2023-04-15T06:59:33;8.35;;;4.82;;
34497;SDS011;20744;50.938;7.286;2023-04-15T07:02:00;7.22;;;4.82;;
34497;SDS011;20744;50.938;7.286;2023-04-15T07:04:28;11.57;;;4.95;;
34497;SDS011;20744;50.938;7.286;2023-04-15T07:06:55;7.35;;;5.10;;
34497;SDS011;20744;50.938;7.286;2023-04-15T07:09:23;9.20;;;4.88;;
34497;SDS011;20744;50.938;7.286;2023-04-15T07:11:52;7.60;;;4.95;;
34497;SDS011;20744;50.938;7.286;2023-04-15T07:14:19;9.05;;;4.70;;
34497;SDS011;20744;50.938;7.286;2023-04-15T07:16:46;9.48;;;5.43;;
34497;SDS011;20744;50.938;7.286;2023-04-15T07:19:14;7.47;;;5.18;;
34497;SDS011;20744;50.938;7.286;2023-04-15T07:21:41;10.52;;;5.60;;
34497;SDS011;20744;50.938;7.286;2023-04-15T07:24:08;10.85;;;5.82;;
34497;SDS011;20744;50.938;7.286;2023-04-15T07:26:36;8.55;;;5.65;;
34497;SDS011;20744;50.938;7.286;2023-04-15T07:29:05;12.25;;;5.60;;
34497;SDS011;20744;50.938;7.286;2023-04-15T07:31:32;10.48;;;5.45;;
34497;SDS011;20744;50.938;7.286;2023-04-15T07:34:00;7.53;;;5.07;;
34497;SDS011;20744;50.938;7.286;2023-04-15T07:36:28;6.82;;;4.80;;
34497;SDS011;20744;50.938;7.286;2023-04-15T07:38:55;8.07;;;4.75;;
34497;SDS011;20744;50.938;7.286;2023-04-15T07:41:23;9.45;;;4.57;;
34497;SDS011;20744;50.938;7.286;2023-04-15T07:43:50;7.05;;;4.18;;
34497;SDS011;20744;50.938;7.286;2023-04-15T07:46:19;6.13;;;4.55;;
34497;SDS011;20744;50.938;7.286;2023-04-15T07:48:48;8.18;;;4.40;;
34497;SDS011;20744;50.938;7.286;2023-04-15T07:51:16;5.18;;;3.33;;
34497;SDS011;20744;50.938;7.286;2023-04-15T07:53:43;7.15;;;4.28;;
34497;SDS011;20744;50.938;7.286;2023-04-15T07:56:10;6.38;;;3.00;;
34497;SDS011;20744;50.938;7.286;2023-04-15T07:58:37;7.00;;;2.70;;
34497;SDS011;20744;50.938;7.286;2023-04-15T08:01:05;7.40;;;2.97;;
34497;SDS011;20744;50.938;7.286;2023-04-15T08:03:34;5.20;;;2.55;;
34497;SDS011;20744;50.938;7.286;2023-04-15T08:06:01;5.95;;;2.70;;
34497;SDS011;20744;50.938;7.286;2023-04-15T08:08:28;4.45;;;2.50;;
34497;SDS011;20744;50.938;7.286;2023-04-15T08:10:56;4.43;;;2.83;;
34497;SDS011;20744;50.938;7.286;2023-04-15T08:13:24;5.28;;;2.80;;
34497;SDS011;20744;50.938;7.286;2023-04-15T08:15:55;3.17;;;2.47;;
34497;SDS011;20744;50.938;7.286;2023-04-15T08:18:40;5.25;;;2.90;;
34497;SDS011;20744;50.938;7.286;2023-04-15T08:21:07;10.07;;;2.88;;
34497;SDS011;20744;50.938;7.286;2023-04-15T08:23:35;5.38;;;2.90;;
34497;SDS011;20744;50.938;7.286;2023-04-15T08:26:03;4.38;;;2.60;;
34497;SDS011;20744;50.938;7.286;2023-04-15T08:28:30;3.67;;;2.35;;
34497;SDS011;20744;50.938;7.286;2023-04-15T08:30:57;4.95;;;2.40;;
34497;SDS011;20744;50.938;7.286;2023-04-15T08:33:24;5.13;;;2.40;;
34497;SDS011;20744;50.938;7.286;2023-04-15T08:35:57;3.90;;;1.90;;
34497;SDS011;20744;50.938;7.286;2023-04-15T08:38:24;6.35;;;1.80;;
34497;SDS011;20744;50.938;7.286;2023-04-15T08:40:51;2.58;;;1.60;;
34497;SDS011;20744;50.938;7.286;2023-04-15T08:43:20;3.40;;;1.70;;
34497;SDS011;20744;50.938;7.286;2023-04-15T08:45:48;4.15;;;1.77;;
34497;SDS011;20744;50.938;7.286;2023-04-15T08:48:16;2.80;;;1.60;;
34497;SDS011;20744;50.938;7.286;2023-04-15T08:50:45;2.25;;;1.25;;
34497;SDS011;20744;50.938;7.286;2023-04-15T08:53:14;4.72;;;1.52;;
34497;SDS011;20744;50.938;7.286;2023-04-15T08:55:42;2.97;;;1.33;;
34497;SDS011;20744;50.938;7.286;2023-04-15T08:58:10;1.95;;;1.33;;
34497;SDS011;20744;50.938;7.286;2023-04-15T09:00:37;2.28;;;1.27;;
34497;SDS011;20744;50.938;7.286;2023-04-15T09:03:04;2.60;;;1.33;;
34497;SDS011;20744;50.938;7.286;2023-04-15T09:05:33;2.78;;;1.42;;
34497;SDS011;20744;50.938;7.286;2023-04-15T09:08:00;3.00;;;1.80;;
34497;SDS011;20744;50.938;7.286;2023-04-15T09:10:29;3.15;;;1.75;;
34497;SDS011;20744;50.938;7.286;2023-04-15T09:12:56;3.28;;;1.67;;
34497;SDS011;20744;50.938;7.286;2023-04-15T09:15:24;4.55;;;1.92;;
34497;SDS011;20744;50.938;7.286;2023-04-15T09:17:53;3.42;;;2.00;;
34497;SDS011;20744;50.938;7.286;2023-04-15T09:20:21;3.90;;;2.00;;
34497;SDS011;20744;50.938;7.286;2023-04-15T09:22:48;3.60;;;1.75;;
34497;SDS011;20744;50.938;7.286;2023-04-15T09:25:26;3.45;;;2.20;;
34497;SDS011;20744;50.938;7.286;2023-04-15T09:27:55;3.28;;;1.80;;
34497;SDS011;20744;50.938;7.286;2023-04-15T09:30:22;3.10;;;1.95;;
34497;SDS011;20744;50.938;7.286;2023-04-15T09:32:50;2.45;;;1.83;;
34497;SDS011;20744;50.938;7.286;2023-04-15T09:35:17;3.83;;;1.55;;
34497;SDS011;20744;50.938;7.286;2023-04-15T09:37:44;3.70;;;1.30;;
34497;SDS011;20744;50.938;7.286;2023-04-15T09:40:12;3.38;;;1.48;;
34497;SDS011;20744;50.938;7.286;2023-04-15T09:42:53;2.28;;;1.10;;
34497;SDS011;20744;50.938;7.286;2023-04-15T09:45:22;1.63;;;1.08;;
34497;SDS011;20744;50.938;7.286;2023-04-15T09:47:50;1.85;;;1.17;;
34497;SDS011;20744;50.938;7.286;2023-04-15T09:50:17;2.95;;;1.42;;
34497;SDS011;20744;50.938;7.286;2023-04-15T09:52:45;2.20;;;1.60;;
34497;SDS011;20744;50.938;7.286;2023-04-15T09:55:13;3.15;;;1.30;;
34497;SDS011;20744;50.938;7.286;2023-04-15T09:57:41;3.60;;;1.48;;
34497;SDS011;20744;50.938;7.286;2023-04-15T10:00:09;2.00;;;1.65;;
34497;SDS011;20744;50.938;7.286;2023-04-15T10:02:38;2.15;;;1.40;;
34497;SDS011;20744;50.938;7.286;2023-04-15T10:05:07;3.35;;;1.70;;
34497;SDS011;20744;50.938;7.286;2023-04-15T10:07:37;5.43;;;1.40;;
34497;SDS011;20744;50.938;7.286;2023-04-15T10:10:07;2.70;;;1.58;;
34497;SDS011;20744;50.938;7.286;2023-04-15T10:12:34;3.88;;;1.88;;
34497;SDS011;20744;50.938;7.286;2023-04-15T10:15:03;3.45;;;2.20;;
34497;SDS011;20744;50.938;7.286;2023-04-15T10:17:31;2.63;;;2.15;;
34497;SDS011;20744;50.938;7.286;2023-04-15T10:20:01;2.80;;;2.13;;
34497;SDS011;20744;50.938;7.286;2023-04-15T10:22:28;2.92;;;2.42;;
34497;SDS011;20744;50.938;7.286;2023-04-15T10:24:56;5.70;;;2.75;;
34497;SDS011;20744;50.938;7.286;2023-04-15T10:27:25;4.47;;;2.85;;
34497;SDS011;20744;50.938;7.286;2023-04-15T10:29:53;5.28;;;3.08;;
34497;SDS011;20744;50.938;7.286;2023-04-15T10:32:20;4.45;;;3.05;;
34497;SDS011;20744;50.938;7.286;2023-04-15T10:34:48;4.13;;;3.22;;
34497;SDS011;20744;50.938;7.286;2023-04-15T10:37:20;5.57;;;3.67;;
34497;SDS011;20744;50.938;7.286;2023-04-15T10:39:48;8.10;;;4.45;;
34497;SDS011;20744;50.938;7.286;2023-04-15T10:42:16;6.22;;;5.00;;
34497;SDS011;20744;50.938;7.286;2023-04-15T10:44:44;5.32;;;4.80;;
34497;SDS011;20744;50.938;7.286;2023-04-15T10:47:12;8.20;;;5.40;;
34497;SDS011;20744;50.938;7.286;2023-04-15T10:49:43;7.25;;;5.30;;
34497;SDS011;20744;50.938;7.286;2023-04-15T10:52:10;7.15;;;5.28;;
34497;SDS011;20744;50.938;7.286;2023-04-15T10:54:39;5.25;;;4.75;;
34497;SDS011;20744;50.938;7.286;2023-04-15T10:57:07;7.47;;;4.22;;
34497;SDS011;20744;50.938;7.286;2023-04-15T10:59:35;8.35;;;4.60;;
34497;SDS011;20744;50.938;7.286;2023-04-15T11:02:03;5.00;;;4.40;;
34497;SDS011;20744;50.938;7.286;2023-04-15T11:04:50;5.55;;;4.65;;
34497;SDS011;20744;50.938;7.286;2023-04-15T11:07:32;4.22;;;3.53;;
34497;SDS011;20744;50.938;7.286;2023-04-15T11:10:01;4.68;;;4.00;;
34497;SDS011;20744;50.938;7.286;2023-04-15T11:12:35;7.45;;;4.65;;
34497;SDS011;20744;50.938;7.286;2023-04-15T11:17:48;4.25;;;3.85;;
34497;SDS011;20744;50.938;7.286;2023-04-15T11:20:15;4.63;;;3.97;;
34497;SDS011;20744;50.938;7.286;2023-04-15T11:22:46;5.25;;;4.10;;
34497;SDS011;20744;50.938;7.286;2023-04-15T11:25:22;4.80;;;3.40;;
34497;SDS011;20744;50.938;7.286;2023-04-15T11:27:50;4.32;;;3.70;;
34497;SDS011;20744;50.938;7.286;2023-04-15T11:30:18;3.78;;;3.03;;
34497;SDS011;20744;50.938;7.286;2023-04-15T11:32:46;6.10;;;3.20;;
34497;SDS011;20744;50.938;7.286;2023-04-15T11:35:15;3.72;;;3.20;;
34497;SDS011;20744;50.938;7.286;2023-04-15T11:37:42;5.28;;;3.00;;
34497;SDS011;20744;50.938;7.286;2023-04-15T11:40:09;5.38;;;3.08;;
34497;SDS011;20744;50.938;7.286;2023-04-15T11:42:38;3.50;;;2.92;;
34497;SDS011;20744;50.938;7.286;2023-04-15T11:45:06;5.18;;;3.65;;
34497;SDS011;20744;50.938;7.286;2023-04-15T11:47:33;5.50;;;3.95;;
34497;SDS011;20744;50.938;7.286;2023-04-15T11:50:13;5.43;;;3.58;;
34497;SDS011;20744;50.938;7.286;2023-04-15T11:52:42;4.97;;;3.47;;
34497;SDS011;20744;50.938;7.286;2023-04-15T11:55:18;5.35;;;4.15;;
34497;SDS011;20744;50.938;7.286;2023-04-15T11:57:46;5.10;;;3.83;;
34497;SDS011;20744;50.938;7.286;2023-04-15T12:00:14;4.93;;;4.00;;
34497;SDS011;20744;50.938;7.286;2023-04-15T12:02:41;4.43;;;3.72;;
34497;SDS011;20744;50.938;7.286;2023-04-15T12:05:08;7.32;;;3.90;;
34497;SDS011;20744;50.938;7.286;2023-04-15T12:10:19;5.25;;;3.88;;
34497;SDS011;20744;50.938;7.286;2023-04-15T12:12:50;8.23;;;4.20;;
34497;SDS011;20744;50.938;7.286;2023-04-15T12:15:20;4.18;;;3.72;;
34497;SDS011;20744;50.938;7.286;2023-04-15T12:17:48;5.93;;;4.10;;
34497;SDS011;20744;50.938;7.286;2023-04-15T12:20:19;7.18;;;4.30;;
34497;SDS011;20744;50.938;7.286;2023-04-15T12:22:47;7.22;;;3.97;;
34497;SDS011;20744;50.938;7.286;2023-04-15T12:25:14;5.75;;;4.20;;
34497;SDS011;20744;50.938;7.286;2023-04-15T12:27:50;5.55;;;3.88;;
34497;SDS011;20744;50.938;7.286;2023-04-15T12:30:18;6.80;;;4.35;;
34497;SDS011;20744;50.938;7.286;2023-04-15T12:32:46;4.65;;;3.95;;
34497;SDS011;20744;50.938;7.286;2023-04-15T12:35:13;5.95;;;4.80;;
34497;SDS011;20744;50.938;7.286;2023-04-15T12:37:41;6.28;;;4.30;;
34497;SDS011;20744;50.938;7.286;2023-04-15T12:40:08;7.63;;;4.50;;
34497;SDS011;20744;50.938;7.286;2023-04-15T12:42:36;5.60;;;4.63;;
34497;SDS011;20744;50.938;7.286;2023-04-15T12:45:05;6.38;;;4.30;;
34497;SDS011;20744;50.938;7.286;2023-04-15T12:47:32;6.00;;;4.45;;
34497;SDS011;20744;50.938;7.286;2023-04-15T12:49:59;6.93;;;5.03;;
34497;SDS011;20744;50.938;7.286;2023-04-15T12:52:27;5.80;;;4.50;;
34497;SDS011;20744;50.938;7.286;2023-04-15T12:54:54;6.63;;;4.80;;
34497;SDS011;20744;50.938;7.286;2023-04-15T12:57:21;6.25;;;4.40;;
34497;SDS011;20744;50.938;7.286;2023-04-15T12:59:48;6.10;;;4.85;;
34497;SDS011;20744;50.938;7.286;2023-04-15T13:02:17;7.05;;;5.15;;
34497;SDS011;20744;50.938;7.286;2023-04-15T13:04:45;7.65;;;4.80;;
34497;SDS011;20744;50.938;7.286;2023-04-15T13:07:12;8.82;;;5.30;;
34497;SDS011;20744;50.938;7.286;2023-04-15T13:09:39;6.97;;;5.40;;
34497;SDS011;20744;50.938;7.286;2023-04-15T13:12:06;9.27;;;6.85;;
34497;SDS011;20744;50.938;7.286;2023-04-15T13:14:34;7.80;;;6.28;;
34497;SDS011;20744;50.938;7.286;2023-04-15T13:17:01;7.15;;;5.68;;
34497;SDS011;20744;50.938;7.286;2023-04-15T13:19:35;6.70;;;5.28;;
34497;SDS011;20744;50.938;7.286;2023-04-15T13:22:02;6.78;;;5.93;;
34497;SDS011;20744;50.938;7.286;2023-04-15T13:24:31;8.73;;;5.82;;
34497;SDS011;20744;50.938;7.286;2023-04-15T13:26:58;7.43;;;5.57;;
34497;SDS011;20744;50.938;7.286;2023-04-15T13:29:25;8.30;;;5.85;;
34497;SDS011;20744;50.938;7.286;2023-04-15T13:31:52;6.63;;;5.90;;
34497;SDS011;20744;50.938;7.286;2023-04-15T13:34:20;7.25;;;6.13;;
34497;SDS011;20744;50.938;7.286;2023-04-15T13:36:48;6.65;;;5.85;;
34497;SDS011;20744;50.938;7.286;2023-04-15T13:39:16;7.35;;;6.40;;
34497;SDS011;20744;50.938;7.286;2023-04-15T13:41:43;9.60;;;6.90;;
34497;SDS011;20744;50.938;7.286;2023-04-15T13:44:12;8.13;;;6.78;;
34497;SDS011;20744;50.938;7.286;2023-04-15T13:46:39;9.73;;;7.03;;
34497;SDS011;20744;50.938;7.286;2023-04-15T13:49:07;13.40;;;7.03;;
34497;SDS011;20744;50.938;7.286;2023-04-15T13:51:34;8.13;;;6.35;;
34497;SDS011;20744;50.938;7.286;2023-04-15T13:54:03;7.28;;;6.25;;
34497;SDS011;20744;50.938;7.286;2023-04-15T13:56:30;9.23;;;6.65;;
34497;SDS011;20744;50.938;7.286;2023-04-15T13:58:57;10.20;;;6.43;;
34497;SDS011;20744;50.938;7.286;2023-04-15T14:01:26;7.65;;;6.25;;
34497;SDS011;20744;50.938;7.286;2023-04-15T14:03:53;8.30;;;6.20;;
34497;SDS011;20744;50.938;7.286;2023-04-15T14:06:20;8.20;;;6.13;;
34497;SDS011;20744;50.938;7.286;2023-04-15T14:08:48;9.40;;;6.68;;
34497;SDS011;20744;50.938;7.286;2023-04-15T14:11:16;7.70;;;6.10;;
34497;SDS011;20744;50.938;7.286;2023-04-15T14:13:43;6.65;;;5.85;;
34497;SDS011;20744;50.938;7.286;2023-04-15T14:16:11;7.50;;;6.10;;
34497;SDS011;20744;50.938;7.286;2023-04-15T14:18:38;8.98;;;6.25;;
34497;SDS011;20744;50.938;7.286;2023-04-15T14:21:05;8.90;;;6.78;;
34497;SDS011;20744;50.938;7.286;2023-04-15T14:23:33;7.85;;;6.22;;
34497;SDS011;20744;50.938;7.286;2023-04-15T14:26:00;8.65;;;6.68;;
34497;SDS011;20744;50.938;7.286;2023-04-15T14:28:29;8.88;;;6.50;;
34497;SDS011;20744;50.938;7.286;2023-04-15T14:30:56;8.05;;;6.80;;
34497;SDS011;20744;50.938;7.286;2023-04-15T14:33:24;9.23;;;7.55;;
34497;SDS011;20744;50.938;7.286;2023-04-15T14:35:51;9.60;;;7.55;;
34497;SDS011;20744;50.938;7.286;2023-04-15T14:38:18;9.45;;;7.40;;
34497;SDS011;20744;50.938;7.286;2023-04-15T14:40:46;10.38;;;7.97;;
34497;SDS011;20744;50.938;7.286;2023-04-15T14:43:13;9.32;;;7.72;;
34497;SDS011;20744;50.938;7.286;2023-04-15T14:45:42;10.90;;;8.55;;
34497;SDS011;20744;50.938;7.286;2023-04-15T14:48:09;10.38;;;8.02;;
34497;SDS011;20744;50.938;7.286;2023-04-15T14:50:37;9.02;;;7.93;;
34497;SDS011;20744;50.938;7.286;2023-04-15T14:53:04;11.13;;;7.97;;
34497;SDS011;20744;50.938;7.286;2023-04-15T14:55:32;9.88;;;8.63;;